sensor_id;sensor_type;location;lat;lon;timestamp;P1;durP1;ratioP1;P2;durP2;ratioP2
3259;SDS011;68938;48.150;14.004;2024-01-10T00:00:06;25.90;;;15.60;;
3259;SDS011;68938;48.150;14.004;2024-01-10T00:02:34;31.03;;;16.60;;
3259;SDS011;68938;48.150;14.004;2024-01-10T00:05:01;19.30;;;11.47;;
3259;SDS011;68938;48.150;14.004;2024-01-10T00:07:28;24.00;;;14.60;;
3259;SDS011;68938;48.150;14.004;2024-01-10T00:09:55;17.80;;;11.53;;
3259;SDS011;68938;48.150;14.004;2024-01-10T00:12:22;29.53;;;14.40;;
3259;SDS011;68938;48.150;14.004;2024-01-10T00:14:49;28.13;;;18.43;;
3259;SDS011;68938;48.150;14.004;2024-01-10T00:17:16;19.57;;;12.43;;
3259;SDS011;68938;48.150;14.004;2024-01-10T00:19:43;21.30;;;14.23;;
3259;SDS011;68938;48.150;14.004;2024-01-10T00:22:10;24.70;;;15.97;;
3259;SDS011;68938;48.150;14.004;2024-01-10T00:24:36;25.37;;;14.10;;
3259;SDS011;68938;48.150;14.004;2024-01-10T00:27:03;20.13;;;11.60;;
3259;SDS011;68938;48.150;14.004;2024-01-10T00:29:30;28.13;;;12.80;;
3259;SDS011;68938;48.150;14.004;2024-01-10T00:31:57;19.17;;;10.43;;
3259;SDS011;68938;48.150;14.004;2024-01-10T00:34:25;18.27;;;14.53;;
3259;SDS011;68938;48.150;14.004;2024-01-10T00:36:52;21.20;;;11.93;;
3259;SDS011;68938;48.150;14.004;2024-01-10T00:39:18;24.93;;;15.43;;
3259;SDS011;68938;48.150;14.004;2024-01-10T00:41:45;26.63;;;16.20;;
3259;SDS011;68938;48.150;14.004;2024-01-10T00:44:12;30.70;;;16.90;;
3259;SDS011;68938;48.150;14.004;2024-01-10T00:46:39;28.70;;;17.33;;
3259;SDS011;68938;48.150;14.004;2024-01-10T00:49:06;21.90;;;14.70;;
3259;SDS011;68938;48.150;14.004;2024-01-10T00:51:34;26.90;;;14.80;;
3259;SDS011;68938;48.150;14.004;2024-01-10T00:54:01;23.20;;;13.10;;
3259;SDS011;68938;48.150;14.004;2024-01-10T00:56:27;26.37;;;16.57;;
3259;SDS011;68938;48.150;14.004;2024-01-10T00:58:54;25.70;;;15.60;;
3259;SDS011;68938;48.150;14.004;2024-01-10T01:01:21;23.57;;;16.07;;
3259;SDS011;68938;48.150;14.004;2024-01-10T01:03:49;31.70;;;15.20;;
3259;SDS011;68938;48.150;14.004;2024-01-10T01:06:16;25.03;;;16.53;;
3259;SDS011;68938;48.150;14.004;2024-01-10T01:08:43;27.63;;;15.47;;
3259;SDS011;68938;48.150;14.004;2024-01-10T01:11:10;24.93;;;15.73;;
3259;SDS011;68938;48.150;14.004;2024-01-10T01:13:37;24.67;;;13.73;;
3259;SDS011;68938;48.150;14.004;2024-01-10T01:16:04;17.70;;;12.17;;
3259;SDS011;68938;48.150;14.004;2024-01-10T01:18:31;28.77;;;15.80;;
3259;SDS011;68938;48.150;14.004;2024-01-10T01:20:58;25.00;;;14.37;;
3259;SDS011;68938;48.150;14.004;2024-01-10T01:23:25;27.83;;;14.03;;
3259;SDS011;68938;48.150;14.004;2024-01-10T01:26:06;29.10;;;17.47;;
3259;SDS011;68938;48.150;14.004;2024-01-10T01:28:33;17.60;;;11.37;;
3259;SDS011;68938;48.150;14.004;2024-01-10T01:31:00;31.90;;;18.27;;
3259;SDS011;68938;48.150;14.004;2024-01-10T01:33:27;27.43;;;12.73;;
3259;SDS011;68938;48.150;14.004;2024-01-10T01:35:55;30.33;;;16.23;;
3259;SDS011;68938;48.150;14.004;2024-01-10T01:38:22;13.77;;;10.00;;
3259;SDS011;68938;48.150;14.004;2024-01-10T01:40:49;19.87;;;15.40;;
3259;SDS011;68938;48.150;14.004;2024-01-10T01:43:23;29.37;;;15.57;;
3259;SDS011;68938;48.150;14.004;2024-01-10T01:45:52;21.67;;;13.70;;
3259;SDS011;68938;48.150;14.004;2024-01-10T01:48:22;27.50;;;17.70;;
3259;SDS011;68938;48.150;14.004;2024-01-10T01:50:52;29.77;;;18.27;;
3259;SDS011;68938;48.150;14.004;2024-01-10T01:53:24;19.83;;;12.57;;
3259;SDS011;68938;48.150;14.004;2024-01-10T01:55:51;20.77;;;13.43;;
3259;SDS011;68938;48.150;14.004;2024-01-10T01:58:19;21.70;;;13.80;;
3259;SDS011;68938;48.150;14.004;2024-01-10T02:00:48;25.07;;;14.23;;
3259;SDS011;68938;48.150;14.004;2024-01-10T02:03:16;26.00;;;13.67;;
3259;SDS011;68938;48.150;14.004;2024-01-10T02:05:43;28.43;;;15.80;;
3259;SDS011;68938;48.150;14.004;2024-01-10T02:08:10;23.80;;;14.60;;
3259;SDS011;68938;48.150;14.004;2024-01-10T02:10:37;22.27;;;10.97;;
3259;SDS011;68938;48.150;14.004;2024-01-10T02:13:05;31.50;;;15.53;;
3259;SDS011;68938;48.150;14.004;2024-01-10T02:15:32;32.20;;;16.53;;
3259;SDS011;68938;48.150;14.004;2024-01-10T02:17:59;27.43;;;15.60;;
3259;SDS011;68938;48.150;14.004;2024-01-10T02:20:26;30.90;;;15.30;;
3259;SDS011;68938;48.150;14.004;2024-01-10T02:22:53;25.90;;;14.93;;
3259;SDS011;68938;48.150;14.004;2024-01-10T02:25:20;30.43;;;15.77;;
3259;SDS011;68938;48.150;14.004;2024-01-10T02:27:47;31.43;;;17.10;;
3259;SDS011;68938;48.150;14.004;2024-01-10T02:30:14;26.13;;;15.13;;
3259;SDS011;68938;48.150;14.004;2024-01-10T02:32:41;29.57;;;17.20;;
3259;SDS011;68938;48.150;14.004;2024-01-10T02:35:08;19.90;;;14.70;;
3259;SDS011;68938;48.150;14.004;2024-01-10T02:37:35;28.33;;;16.50;;
3259;SDS011;68938;48.150;14.004;2024-01-10T02:40:02;31.57;;;16.00;;
3259;SDS011;68938;48.150;14.004;2024-01-10T02:42:29;24.73;;;14.30;;
3259;SDS011;68938;48.150;14.004;2024-01-10T02:44:58;22.23;;;13.63;;
3259;SDS011;68938;48.150;14.004;2024-01-10T02:47:25;23.73;;;15.20;;
3259;SDS011;68938;48.150;14.004;2024-01-10T02:49:52;25.70;;;16.17;;
3259;SDS011;68938;48.150;14.004;2024-01-10T02:52:19;32.63;;;15.20;;
3259;SDS011;68938;48.150;14.004;2024-01-10T02:54:46;26.57;;;14.77;;
3259;SDS011;68938;48.150;14.004;2024-01-10T02:57:13;31.63;;;15.83;;
3259;SDS011;68938;48.150;14.004;2024-01-10T02:59:40;33.50;;;17.97;;
3259;SDS011;68938;48.150;14.004;2024-01-10T03:02:07;20.27;;;13.80;;
3259;SDS011;68938;48.150;14.004;2024-01-10T03:04:34;28.57;;;15.73;;
3259;SDS011;68938;48.150;14.004;2024-01-10T03:07:01;35.83;;;17.40;;
3259;SDS011;68938;48.150;14.004;2024-01-10T03:09:28;24.30;;;13.97;;
3259;SDS011;68938;48.150;14.004;2024-01-10T03:11:55;31.80;;;18.73;;
3259;SDS011;68938;48.150;14.004;2024-01-10T03:14:22;27.60;;;15.27;;
3259;SDS011;68938;48.150;14.004;2024-01-10T03:16:49;31.73;;;16.30;;
3259;SDS011;68938;48.150;14.004;2024-01-10T03:19:16;32.60;;;18.53;;
3259;SDS011;68938;48.150;14.004;2024-01-10T03:21:43;25.73;;;17.00;;
3259;SDS011;68938;48.150;14.004;2024-01-10T03:24:10;26.77;;;16.17;;
3259;SDS011;68938;48.150;14.004;2024-01-10T03:26:37;24.40;;;14.73;;
3259;SDS011;68938;48.150;14.004;2024-01-10T03:29:04;33.80;;;18.07;;
3259;SDS011;68938;48.150;14.004;2024-01-10T03:31:31;34.87;;;16.13;;
3259;SDS011;68938;48.150;14.004;2024-01-10T03:33:58;31.43;;;16.50;;
3259;SDS011;68938;48.150;14.004;2024-01-10T03:36:25;34.57;;;17.50;;
3259;SDS011;68938;48.150;14.004;2024-01-10T03:38:53;33.80;;;17.97;;
3259;SDS011;68938;48.150;14.004;2024-01-10T03:41:20;29.40;;;16.70;;
3259;SDS011;68938;48.150;14.004;2024-01-10T03:43:47;30.93;;;16.97;;
3259;SDS011;68938;48.150;14.004;2024-01-10T03:46:15;31.20;;;16.50;;
3259;SDS011;68938;48.150;14.004;2024-01-10T03:48:43;34.33;;;16.57;;
3259;SDS011;68938;48.150;14.004;2024-01-10T03:51:10;25.93;;;15.83;;
3259;SDS011;68938;48.150;14.004;2024-01-10T03:53:37;37.93;;;18.93;;
3259;SDS011;68938;48.150;14.004;2024-01-10T03:56:04;28.77;;;17.97;;
3259;SDS011;68938;48.150;14.004;2024-01-10T03:58:32;30.67;;;16.23;;
3259;SDS011;68938;48.150;14.004;2024-01-10T04:00:59;29.60;;;19.53;;
3259;SDS011;68938;48.150;14.004;2024-01-10T04:03:25;32.17;;;18.20;;
3259;SDS011;68938;48.150;14.004;2024-01-10T04:05:52;36.17;;;19.10;;
3259;SDS011;68938;48.150;14.004;2024-01-10T04:08:19;33.50;;;17.37;;
3259;SDS011;68938;48.150;14.004;2024-01-10T04:10:48;30.10;;;17.90;;
3259;SDS011;68938;48.150;14.004;2024-01-10T04:13:15;40.10;;;21.87;;
3259;SDS011;68938;48.150;14.004;2024-01-10T04:15:42;30.90;;;18.37;;
3259;SDS011;68938;48.150;14.004;2024-01-10T04:18:09;30.07;;;17.20;;
3259;SDS011;68938;48.150;14.004;2024-01-10T04:20:41;39.40;;;20.25;;
3259;SDS011;68938;48.150;14.004;2024-01-10T04:23:08;36.80;;;20.90;;
3259;SDS011;68938;48.150;14.004;2024-01-10T04:25:35;42.67;;;20.47;;
3259;SDS011;68938;48.150;14.004;2024-01-10T04:28:02;33.50;;;19.90;;
3259;SDS011;68938;48.150;14.004;2024-01-10T04:30:29;30.77;;;21.17;;
3259;SDS011;68938;48.150;14.004;2024-01-10T04:32:56;29.77;;;17.00;;
3259;SDS011;68938;48.150;14.004;2024-01-10T04:35:23;39.37;;;21.97;;
3259;SDS011;68938;48.150;14.004;2024-01-10T04:37:50;27.20;;;16.63;;
3259;SDS011;68938;48.150;14.004;2024-01-10T04:40:17;33.33;;;19.33;;
3259;SDS011;68938;48.150;14.004;2024-01-10T04:42:44;38.63;;;18.50;;
3259;SDS011;68938;48.150;14.004;2024-01-10T04:45:11;30.70;;;17.87;;
3259;SDS011;68938;48.150;14.004;2024-01-10T04:47:38;35.93;;;19.13;;
3259;SDS011;68938;48.150;14.004;2024-01-10T04:50:05;32.00;;;19.53;;
3259;SDS011;68938;48.150;14.004;2024-01-10T04:52:38;36.15;;;18.30;;
3259;SDS011;68938;48.150;14.004;2024-01-10T04:55:05;37.83;;;19.13;;
3259;SDS011;68938;48.150;14.004;2024-01-10T04:57:32;34.40;;;19.73;;
3259;SDS011;68938;48.150;14.004;2024-01-10T04:59:59;32.90;;;20.03;;
3259;SDS011;68938;48.150;14.004;2024-01-10T05:02:26;38.37;;;19.57;;
3259;SDS011;68938;48.150;14.004;2024-01-10T05:04:53;33.60;;;20.37;;
3259;SDS011;68938;48.150;14.004;2024-01-10T05:07:20;36.20;;;19.23;;
3259;SDS011;68938;48.150;14.004;2024-01-10T05:09:47;33.73;;;19.67;;
3259;SDS011;68938;48.150;14.004;2024-01-10T05:12:14;37.33;;;20.93;;
3259;SDS011;68938;48.150;14.004;2024-01-10T05:14:41;33.77;;;19.73;;
3259;SDS011;68938;48.150;14.004;2024-01-10T05:17:08;31.33;;;17.87;;
3259;SDS011;68938;48.150;14.004;2024-01-10T05:19:35;42.57;;;19.80;;
3259;SDS011;68938;48.150;14.004;2024-01-10T05:22:02;32.37;;;18.53;;
3259;SDS011;68938;48.150;14.004;2024-01-10T05:24:30;36.17;;;19.20;;
3259;SDS011;68938;48.150;14.004;2024-01-10T05:26:57;32.40;;;18.80;;
3259;SDS011;68938;48.150;14.004;2024-01-10T05:29:24;39.73;;;18.70;;
3259;SDS011;68938;48.150;14.004;2024-01-10T05:31:51;36.23;;;18.57;;
3259;SDS011;68938;48.150;14.004;2024-01-10T05:34:18;39.13;;;18.50;;
3259;SDS011;68938;48.150;14.004;2024-01-10T05:36:45;32.43;;;19.60;;
3259;SDS011;68938;48.150;14.004;2024-01-10T05:39:12;43.67;;;20.77;;
3259;SDS011;68938;48.150;14.004;2024-01-10T05:41:39;32.27;;;20.63;;
3259;SDS011;68938;48.150;14.004;2024-01-10T05:44:08;31.33;;;19.33;;
3259;SDS011;68938;48.150;14.004;2024-01-10T05:46:35;30.67;;;19.30;;
3259;SDS011;68938;48.150;14.004;2024-01-10T05:49:02;32.27;;;20.17;;
3259;SDS011;68938;48.150;14.004;2024-01-10T05:51:30;48.20;;;24.50;;
3259;SDS011;68938;48.150;14.004;2024-01-10T05:53:58;45.20;;;21.97;;
3259;SDS011;68938;48.150;14.004;2024-01-10T05:56:25;72.77;;;32.50;;
3259;SDS011;68938;48.150;14.004;2024-01-10T05:58:52;33.87;;;21.20;;
3259;SDS011;68938;48.150;14.004;2024-01-10T06:01:19;40.73;;;21.20;;
3259;SDS011;68938;48.150;14.004;2024-01-10T06:03:46;43.73;;;26.17;;
3259;SDS011;68938;48.150;14.004;2024-01-10T06:06:13;54.43;;;30.80;;
3259;SDS011;68938;48.150;14.004;2024-01-10T06:08:40;44.10;;;24.00;;
3259;SDS011;68938;48.150;14.004;2024-01-10T06:11:07;43.77;;;25.10;;
3259;SDS011;68938;48.150;14.004;2024-01-10T06:13:35;57.00;;;27.27;;
3259;SDS011;68938;48.150;14.004;2024-01-10T06:16:15;92.07;;;36.47;;
3259;SDS011;68938;48.150;14.004;2024-01-10T06:18:42;58.57;;;29.23;;
3259;SDS011;68938;48.150;14.004;2024-01-10T06:21:09;43.80;;;22.17;;
3259;SDS011;68938;48.150;14.004;2024-01-10T06:23:36;43.20;;;23.00;;
3259;SDS011;68938;48.150;14.004;2024-01-10T06:26:03;44.33;;;22.30;;
3259;SDS011;68938;48.150;14.004;2024-01-10T06:28:31;44.10;;;23.70;;
3259;SDS011;68938;48.150;14.004;2024-01-10T06:30:58;70.37;;;29.77;;
3259;SDS011;68938;48.150;14.004;2024-01-10T06:33:25;73.60;;;33.67;;
3259;SDS011;68938;48.150;14.004;2024-01-10T06:35:52;46.60;;;23.70;;
3259;SDS011;68938;48.150;14.004;2024-01-10T06:38:19;37.43;;;19.63;;
3259;SDS011;68938;48.150;14.004;2024-01-10T06:40:46;36.87;;;20.53;;
3259;SDS011;68938;48.150;14.004;2024-01-10T06:43:14;40.60;;;20.37;;
3259;SDS011;68938;48.150;14.004;2024-01-10T06:45:41;33.73;;;19.43;;
3259;SDS011;68938;48.150;14.004;2024-01-10T06:48:08;33.87;;;21.07;;
3259;SDS011;68938;48.150;14.004;2024-01-10T06:50:36;40.57;;;22.60;;
3259;SDS011;68938;48.150;14.004;2024-01-10T06:53:05;40.07;;;21.90;;
3259;SDS011;68938;48.150;14.004;2024-01-10T06:55:33;40.53;;;21.97;;
3259;SDS011;68938;48.150;14.004;2024-01-10T06:58:00;50.50;;;20.70;;
3259;SDS011;68938;48.150;14.004;2024-01-10T07:00:27;44.20;;;21.50;;
3259;SDS011;68938;48.150;14.004;2024-01-10T07:02:54;42.20;;;20.27;;
3259;SDS011;68938;48.150;14.004;2024-01-10T07:05:21;40.10;;;22.97;;
3259;SDS011;68938;48.150;14.004;2024-01-10T07:07:48;38.80;;;21.77;;
3259;SDS011;68938;48.150;14.004;2024-01-10T07:10:15;36.77;;;21.27;;
3259;SDS011;68938;48.150;14.004;2024-01-10T07:12:42;35.23;;;20.73;;
3259;SDS011;68938;48.150;14.004;2024-01-10T07:15:09;41.43;;;22.37;;
3259;SDS011;68938;48.150;14.004;2024-01-10T07:17:37;40.20;;;20.63;;
3259;SDS011;68938;48.150;14.004;2024-01-10T07:20:05;47.40;;;22.37;;
3259;SDS011;68938;48.150;14.004;2024-01-10T07:22:32;37.33;;;19.80;;
3259;SDS011;68938;48.150;14.004;2024-01-10T07:24:59;44.60;;;20.87;;
3259;SDS011;68938;48.150;14.004;2024-01-10T07:27:26;36.17;;;20.60;;
3259;SDS011;68938;48.150;14.004;2024-01-10T07:29:53;44.80;;;22.87;;
3259;SDS011;68938;48.150;14.004;2024-01-10T07:32:20;36.63;;;21.83;;
3259;SDS011;68938;48.150;14.004;2024-01-10T07:34:47;39.00;;;21.37;;
3259;SDS011;68938;48.150;14.004;2024-01-10T07:37:15;39.47;;;20.20;;
3259;SDS011;68938;48.150;14.004;2024-01-10T07:39:42;43.33;;;21.63;;
3259;SDS011;68938;48.150;14.004;2024-01-10T07:42:09;43.23;;;22.87;;
3259;SDS011;68938;48.150;14.004;2024-01-10T07:44:35;44.80;;;24.70;;
3259;SDS011;68938;48.150;14.004;2024-01-10T07:47:02;40.17;;;22.80;;
3259;SDS011;68938;48.150;14.004;2024-01-10T07:49:30;38.67;;;21.77;;
3259;SDS011;68938;48.150;14.004;2024-01-10T07:51:57;42.83;;;22.77;;
3259;SDS011;68938;48.150;14.004;2024-01-10T07:54:24;40.90;;;23.67;;
3259;SDS011;68938;48.150;14.004;2024-01-10T07:56:51;47.40;;;24.50;;
3259;SDS011;68938;48.150;14.004;2024-01-10T07:59:18;46.20;;;24.70;;
3259;SDS011;68938;48.150;14.004;2024-01-10T08:01:53;44.10;;;25.20;;
3259;SDS011;68938;48.150;14.004;2024-01-10T08:04:22;46.93;;;24.93;;
3259;SDS011;68938;48.150;14.004;2024-01-10T08:06:49;39.93;;;23.90;;
3259;SDS011;68938;48.150;14.004;2024-01-10T08:09:16;42.73;;;22.87;;
3259;SDS011;68938;48.150;14.004;2024-01-10T08:11:43;54.13;;;24.60;;
3259;SDS011;68938;48.150;14.004;2024-01-10T08:14:09;40.77;;;21.93;;
3259;SDS011;68938;48.150;14.004;2024-01-10T08:16:37;39.47;;;21.57;;
3259;SDS011;68938;48.150;14.004;2024-01-10T08:19:04;45.03;;;22.97;;
3259;SDS011;68938;48.150;14.004;2024-01-10T08:21:31;43.07;;;23.93;;
3259;SDS011;68938;48.150;14.004;2024-01-10T08:23:58;55.70;;;24.77;;
3259;SDS011;68938;48.150;14.004;2024-01-10T08:26:25;44.23;;;23.47;;
3259;SDS011;68938;48.150;14.004;2024-01-10T08:28:53;40.60;;;23.20;;
3259;SDS011;68938;48.150;14.004;2024-01-10T08:31:21;44.37;;;24.80;;
3259;SDS011;68938;48.150;14.004;2024-01-10T08:33:48;53.07;;;26.30;;
3259;SDS011;68938;48.150;14.004;2024-01-10T08:36:15;45.40;;;25.10;;
3259;SDS011;68938;48.150;14.004;2024-01-10T08:38:42;42.93;;;25.70;;
3259;SDS011;68938;48.150;14.004;2024-01-10T08:41:09;45.07;;;25.57;;
3259;SDS011;68938;48.150;14.004;2024-01-10T08:43:38;45.90;;;27.80;;
3259;SDS011;68938;48.150;14.004;2024-01-10T08:46:05;44.60;;;26.50;;
3259;SDS011;68938;48.150;14.004;2024-01-10T08:48:33;53.63;;;27.07;;
3259;SDS011;68938;48.150;14.004;2024-01-10T08:51:00;41.43;;;26.07;;
3259;SDS011;68938;48.150;14.004;2024-01-10T08:53:27;47.73;;;26.83;;
3259;SDS011;68938;48.150;14.004;2024-01-10T08:55:55;49.47;;;29.73;;
3259;SDS011;68938;48.150;14.004;2024-01-10T08:58:21;48.70;;;26.70;;
3259;SDS011;68938;48.150;14.004;2024-01-10T09:00:48;55.33;;;29.67;;
3259;SDS011;68938;48.150;14.004;2024-01-10T09:03:15;56.23;;;26.00;;
3259;SDS011;68938;48.150;14.004;2024-01-10T09:05:42;59.27;;;28.67;;
3259;SDS011;68938;48.150;14.004;2024-01-10T09:08:26;52.83;;;27.50;;
3259;SDS011;68938;48.150;14.004;2024-01-10T09:10:53;57.23;;;30.70;;
3259;SDS011;68938;48.150;14.004;2024-01-10T09:13:20;44.10;;;25.33;;
3259;SDS011;68938;48.150;14.004;2024-01-10T09:15:47;46.57;;;28.07;;
3259;SDS011;68938;48.150;14.004;2024-01-10T09:18:14;46.57;;;28.57;;
3259;SDS011;68938;48.150;14.004;2024-01-10T09:20:42;48.83;;;28.60;;
3259;SDS011;68938;48.150;14.004;2024-01-10T09:23:08;42.97;;;24.97;;
3259;SDS011;68938;48.150;14.004;2024-01-10T09:25:36;50.30;;;28.03;;
3259;SDS011;68938;48.150;14.004;2024-01-10T09:28:06;45.33;;;27.57;;
3259;SDS011;68938;48.150;14.004;2024-01-10T09:30:33;42.47;;;24.20;;
3259;SDS011;68938;48.150;14.004;2024-01-10T09:33:00;48.93;;;27.53;;
3259;SDS011;68938;48.150;14.004;2024-01-10T09:35:27;46.53;;;26.87;;
3259;SDS011;68938;48.150;14.004;2024-01-10T09:37:55;49.93;;;30.77;;
3259;SDS011;68938;48.150;14.004;2024-01-10T09:40:22;45.87;;;28.23;;
3259;SDS011;68938;48.150;14.004;2024-01-10T09:42:49;46.63;;;23.80;;
3259;SDS011;68938;48.150;14.004;2024-01-10T09:45:17;51.23;;;29.13;;
3259;SDS011;68938;48.150;14.004;2024-01-10T09:47:48;49.77;;;27.43;;
3259;SDS011;68938;48.150;14.004;2024-01-10T09:50:19;44.77;;;27.57;;
3259;SDS011;68938;48.150;14.004;2024-01-10T09:52:49;46.90;;;26.70;;
3259;SDS011;68938;48.150;14.004;2024-01-10T09:55:34;47.17;;;29.27;;
3259;SDS011;68938;48.150;14.004;2024-01-10T09:58:06;38.50;;;24.50;;
3259;SDS011;68938;48.150;14.004;2024-01-10T10:00:33;54.83;;;30.70;;
3259;SDS011;68938;48.150;14.004;2024-01-10T10:03:07;48.47;;;27.87;;
3259;SDS011;68938;48.150;14.004;2024-01-10T10:05:35;52.87;;;28.00;;
3259;SDS011;68938;48.150;14.004;2024-01-10T10:08:03;41.50;;;24.60;;
3259;SDS011;68938;48.150;14.004;2024-01-10T10:10:33;48.63;;;28.60;;
3259;SDS011;68938;48.150;14.004;2024-01-10T10:13:00;46.90;;;26.43;;
3259;SDS011;68938;48.150;14.004;2024-01-10T10:15:27;47.00;;;25.87;;
3259;SDS011;68938;48.150;14.004;2024-01-10T10:17:54;45.70;;;26.60;;
3259;SDS011;68938;48.150;14.004;2024-01-10T10:20:25;46.60;;;26.20;;
3259;SDS011;68938;48.150;14.004;2024-01-10T10:23:04;47.17;;;27.63;;
3259;SDS011;68938;48.150;14.004;2024-01-10T10:25:34;42.30;;;26.97;;
3259;SDS011;68938;48.150;14.004;2024-01-10T10:28:04;51.63;;;29.73;;
3259;SDS011;68938;48.150;14.004;2024-01-10T10:30:32;45.03;;;29.43;;
3259;SDS011;68938;48.150;14.004;2024-01-10T10:33:03;41.83;;;26.60;;
3259;SDS011;68938;48.150;14.004;2024-01-10T10:35:32;49.40;;;26.97;;
3259;SDS011;68938;48.150;14.004;2024-01-10T10:38:07;44.20;;;28.40;;
3259;SDS011;68938;48.150;14.004;2024-01-10T10:40:35;50.27;;;27.80;;
3259;SDS011;68938;48.150;14.004;2024-01-10T10:43:02;50.70;;;27.37;;
3259;SDS011;68938;48.150;14.004;2024-01-10T10:45:31;49.23;;;30.50;;
3259;SDS011;68938;48.150;14.004;2024-01-10T10:48:00;47.77;;;29.10;;
3259;SDS011;68938;48.150;14.004;2024-01-10T10:50:30;45.57;;;29.37;;
3259;SDS011;68938;48.150;14.004;2024-01-10T10:53:02;50.10;;;29.60;;
3259;SDS011;68938;48.150;14.004;2024-01-10T10:55:31;46.47;;;25.40;;
3259;SDS011;68938;48.150;14.004;2024-01-10T10:57:59;49.43;;;28.07;;
3259;SDS011;68938;48.150;14.004;2024-01-10T11:00:36;50.00;;;29.17;;
3259;SDS011;68938;48.150;14.004;2024-01-10T11:03:05;55.00;;;31.07;;
3259;SDS011;68938;48.150;14.004;2024-01-10T11:05:35;47.17;;;29.53;;
3259;SDS011;68938;48.150;14.004;2024-01-10T11:08:08;48.07;;;30.07;;
3259;SDS011;68938;48.150;14.004;2024-01-10T11:10:41;50.70;;;30.63;;
3259;SDS011;68938;48.150;14.004;2024-01-10T11:25:03;44.53;;;26.90;;
3259;SDS011;68938;48.150;14.004;2024-01-10T11:27:30;49.47;;;29.47;;
3259;SDS011;68938;48.150;14.004;2024-01-10T11:29:57;53.97;;;29.07;;
3259;SDS011;68938;48.150;14.004;2024-01-10T11:32:24;49.27;;;28.73;;
3259;SDS011;68938;48.150;14.004;2024-01-10T11:34:58;53.50;;;29.07;;
3259;SDS011;68938;48.150;14.004;2024-01-10T11:37:39;50.90;;;29.80;;
3259;SDS011;68938;48.150;14.004;2024-01-10T11:40:09;47.17;;;28.87;;
3259;SDS011;68938;48.150;14.004;2024-01-10T11:42:42;49.73;;;29.37;;
3259;SDS011;68938;48.150;14.004;2024-01-10T11:47:59;44.43;;;28.33;;
3259;SDS011;68938;48.150;14.004;2024-01-10T11:50:27;51.87;;;29.03;;
3259;SDS011;68938;48.150;14.004;2024-01-10T11:52:55;44.20;;;26.57;;
3259;SDS011;68938;48.150;14.004;2024-01-10T11:58:14;46.53;;;28.00;;
3259;SDS011;68938;48.150;14.004;2024-01-10T12:00:43;49.00;;;28.10;;
3259;SDS011;68938;48.150;14.004;2024-01-10T12:03:14;46.43;;;29.43;;
3259;SDS011;68938;48.150;14.004;2024-01-10T12:05:42;44.70;;;26.60;;
3259;SDS011;68938;48.150;14.004;2024-01-10T12:08:09;51.80;;;30.17;;
3259;SDS011;68938;48.150;14.004;2024-01-10T12:10:36;38.47;;;26.30;;
3259;SDS011;68938;48.150;14.004;2024-01-10T12:13:03;39.73;;;29.23;;
3259;SDS011;68938;48.150;14.004;2024-01-10T12:15:30;48.90;;;29.10;;
3259;SDS011;68938;48.150;14.004;2024-01-10T12:17:57;52.17;;;31.30;;
3259;SDS011;68938;48.150;14.004;2024-01-10T12:20:24;49.00;;;30.20;;
3259;SDS011;68938;48.150;14.004;2024-01-10T12:22:51;41.47;;;27.53;;
3259;SDS011;68938;48.150;14.004;2024-01-10T12:25:18;46.57;;;27.93;;
3259;SDS011;68938;48.150;14.004;2024-01-10T12:27:45;46.10;;;28.70;;
3259;SDS011;68938;48.150;14.004;2024-01-10T12:30:12;47.40;;;25.63;;
3259;SDS011;68938;48.150;14.004;2024-01-10T12:32:39;39.97;;;27.90;;
3259;SDS011;68938;48.150;14.004;2024-01-10T12:35:06;45.13;;;27.23;;
3259;SDS011;68938;48.150;14.004;2024-01-10T12:37:33;45.10;;;28.60;;
3259;SDS011;68938;48.150;14.004;2024-01-10T12:40:00;43.47;;;26.33;;
3259;SDS011;68938;48.150;14.004;2024-01-10T12:42:31;49.73;;;28.73;;
3259;SDS011;68938;48.150;14.004;2024-01-10T12:44:58;49.63;;;30.37;;
3259;SDS011;68938;48.150;14.004;2024-01-10T12:47:25;49.33;;;28.57;;
3259;SDS011;68938;48.150;14.004;2024-01-10T12:49:52;44.93;;;26.47;;
3259;SDS011;68938;48.150;14.004;2024-01-10T12:52:19;44.00;;;25.77;;
3259;SDS011;68938;48.150;14.004;2024-01-10T12:54:48;47.70;;;29.13;;
3259;SDS011;68938;48.150;14.004;2024-01-10T12:57:15;42.30;;;27.37;;
3259;SDS011;68938;48.150;14.004;2024-01-10T12:59:42;45.03;;;29.10;;
3259;SDS011;68938;48.150;14.004;2024-01-10T13:02:09;46.10;;;26.00;;
3259;SDS011;68938;48.150;14.004;2024-01-10T13:04:36;49.67;;;28.33;;
3259;SDS011;68938;48.150;14.004;2024-01-10T13:07:03;50.37;;;30.10;;
3259;SDS011;68938;48.150;14.004;2024-01-10T13:09:30;52.37;;;30.47;;
3259;SDS011;68938;48.150;14.004;2024-01-10T13:11:57;43.00;;;29.10;;
3259;SDS011;68938;48.150;14.004;2024-01-10T13:14:24;48.90;;;29.83;;
3259;SDS011;68938;48.150;14.004;2024-01-10T13:16:51;51.30;;;31.37;;
3259;SDS011;68938;48.150;14.004;2024-01-10T13:19:25;50.30;;;29.27;;
3259;SDS011;68938;48.150;14.004;2024-01-10T13:21:52;47.93;;;29.60;;
3259;SDS011;68938;48.150;14.004;2024-01-10T13:24:20;42.10;;;26.90;;
3259;SDS011;68938;48.150;14.004;2024-01-10T13:26:46;46.07;;;30.60;;
3259;SDS011;68938;48.150;14.004;2024-01-10T13:29:13;43.80;;;29.77;;
3259;SDS011;68938;48.150;14.004;2024-01-10T13:31:40;48.40;;;32.80;;
3259;SDS011;68938;48.150;14.004;2024-01-10T13:34:07;45.17;;;28.77;;
3259;SDS011;68938;48.150;14.004;2024-01-10T13:36:34;53.70;;;32.77;;
3259;SDS011;68938;48.150;14.004;2024-01-10T13:39:01;44.83;;;31.97;;
3259;SDS011;68938;48.150;14.004;2024-01-10T13:41:28;45.33;;;29.47;;
3259;SDS011;68938;48.150;14.004;2024-01-10T13:43:55;46.83;;;28.87;;
3259;SDS011;68938;48.150;14.004;2024-01-10T13:46:22;51.97;;;31.27;;
3259;SDS011;68938;48.150;14.004;2024-01-10T13:48:49;52.93;;;29.93;;
3259;SDS011;68938;48.150;14.004;2024-01-10T13:51:16;55.73;;;31.33;;
3259;SDS011;68938;48.150;14.004;2024-01-10T13:53:43;41.33;;;29.40;;
3259;SDS011;68938;48.150;14.004;2024-01-10T13:56:10;45.80;;;29.60;;
3259;SDS011;68938;48.150;14.004;2024-01-10T13:58:37;51.97;;;29.53;;
3259;SDS011;68938;48.150;14.004;2024-01-10T14:01:04;42.57;;;28.83;;
3259;SDS011;68938;48.150;14.004;2024-01-10T14:03:31;49.63;;;31.13;;
3259;SDS011;68938;48.150;14.004;2024-01-10T14:05:59;45.43;;;31.37;;
3259;SDS011;68938;48.150;14.004;2024-01-10T14:08:26;43.67;;;28.60;;
3259;SDS011;68938;48.150;14.004;2024-01-10T14:10:53;45.80;;;29.87;;
3259;SDS011;68938;48.150;14.004;2024-01-10T14:13:21;49.53;;;32.33;;
3259;SDS011;68938;48.150;14.004;2024-01-10T14:15:47;45.43;;;31.47;;
3259;SDS011;68938;48.150;14.004;2024-01-10T14:18:15;51.53;;;29.60;;
3259;SDS011;68938;48.150;14.004;2024-01-10T14:20:42;55.33;;;29.80;;
3259;SDS011;68938;48.150;14.004;2024-01-10T14:23:09;54.87;;;32.10;;
3259;SDS011;68938;48.150;14.004;2024-01-10T14:25:36;49.93;;;30.40;;
3259;SDS011;68938;48.150;14.004;2024-01-10T14:28:03;48.50;;;28.53;;
3259;SDS011;68938;48.150;14.004;2024-01-10T14:30:30;53.60;;;31.67;;
3259;SDS011;68938;48.150;14.004;2024-01-10T14:32:57;53.47;;;31.67;;
3259;SDS011;68938;48.150;14.004;2024-01-10T14:35:24;45.73;;;30.63;;
3259;SDS011;68938;48.150;14.004;2024-01-10T14:37:52;55.60;;;31.00;;
3259;SDS011;68938;48.150;14.004;2024-01-10T14:40:19;49.20;;;31.73;;